Time;durP1;ratioP1;P1;durP2;ratioP2;P2;SDS_P1;SDS_P2;PMS_P1;PMS_P2;Temp;Humidity;BMP_temperature;BMP_pressure;BME280_temperature;BME280_humidity;BME280_pressure;Samples;Min_cycle;Max_cycle;Signal;HPM_P1;HPM_P2
2022/03/29 00:02:00;;;;;;;16.20;10.23;;;12.40;64.90;;;;;;5055806;28;20060;-72
2022/03/29 00:04:26;;;;;;;14.60;9.65;;;12.50;64.70;;;;;;5054738;28;20073;-72
2022/03/29 00:06:53;;;;;;;20.15;10.82;;;12.60;63.50;;;;;;5055416;28;20044;-73
2022/03/29 00:09:20;;;;;;;17.45;10.20;;;12.70;62.80;;;;;;5055611;28;20072;-72
2022/03/29 00:11:46;;;;;;;18.15;10.98;;;12.80;63.80;;;;;;5055769;28;20033;-71
2022/03/29 00:14:15;;;;;;;17.75;9.80;;;12.60;63.30;;;;;;5055534;28;20048;-72
2022/03/29 00:16:41;;;;;;;18.23;9.88;;;12.50;63.90;;;;;;5055542;28;20044;-73
2022/03/29 00:19:07;;;;;;;14.20;9.43;;;12.50;63.90;;;;;;5055522;28;20562;-72
2022/03/29 00:21:33;;;;;;;16.13;10.45;;;12.50;62.50;;;;;;5055406;28;20044;-71
2022/03/29 00:23:59;;;;;;;14.82;9.80;;;12.30;63.20;;;;;;5055320;28;20075;-72
2022/03/29 00:26:25;;;;;;;16.48;10.18;;;12.10;64.00;;;;;;5055262;28;20072;-73
2022/03/29 00:28:51;;;;;;;21.38;10.73;;;12.20;63.80;;;;;;5055000;28;20423;-73
2022/03/29 00:31:19;;;;;;;17.50;10.57;;;12.20;62.50;;;;;;5054990;28;20045;-72
2022/03/29 00:33:46;;;;;;;19.48;10.38;;;12.30;63.00;;;;;;5055176;28;20045;-73
2022/03/29 00:36:12;;;;;;;15.18;9.70;;;12.30;63.30;;;;;;5036997;28;20444;-73
2022/03/29 00:38:37;;;;;;;18.73;11.00;;;12.50;61.90;;;;;;5054843;28;20044;-71
2022/03/29 00:41:03;;;;;;;15.55;10.40;;;12.70;60.80;;;;;;5054744;28;20072;-72
2022/03/29 00:43:29;;;;;;;24.33;14.13;;;12.70;61.90;;;;;;5054903;28;20052;-72
2022/03/29 00:45:55;;;;;;;15.77;10.32;;;12.60;62.60;;;;;;5055138;28;20060;-72
2022/03/29 00:48:21;;;;;;;16.58;9.20;;;12.50;61.60;;;;;;5054575;28;20579;-72
2022/03/29 00:50:47;;;;;;;15.10;10.27;;;12.50;61.10;;;;;;5054604;28;20041;-72
2022/03/29 00:53:16;;;;;;;18.80;11.45;;;12.40;63.20;;;;;;5055008;28;20044;-72
2022/03/29 00:55:43;;;;;;;19.75;10.70;;;12.30;63.20;;;;;;5054921;28;20564;-72
2022/03/29 00:58:11;;;;;;;19.63;11.40;;;12.30;63.00;;;;;;5054865;28;20052;-73
2022/03/29 01:00:38;;;;;;;16.00;10.90;;;12.40;62.50;;;;;;5055033;28;20037;-73
2022/03/29 01:03:04;;;;;;;15.63;9.73;;;12.40;63.10;;;;;;5054826;28;20032;-73
2022/03/29 01:05:31;;;;;;;18.05;10.23;;;12.30;62.60;;;;;;5054482;28;20033;-72
2022/03/29 01:08:01;;;;;;;21.38;11.10;;;12.20;64.00;;;;;;5054567;28;20551;-73
2022/03/29 01:10:27;;;;;;;16.13;10.50;;;12.10;63.90;;;;;;5054738;28;20043;-72
2022/03/29 01:12:55;;;;;;;16.95;10.48;;;12.00;63.70;;;;;;5054495;28;20045;-72
2022/03/29 01:15:23;;;;;;;15.40;10.60;;;12.00;62.80;;;;;;5054181;28;20400;-72
2022/03/29 01:17:50;;;;;;;17.58;10.05;;;12.00;64.20;;;;;;5054140;28;20488;-72
2022/03/29 01:20:22;;;;;;;15.43;10.43;;;11.80;63.90;;;;;;5054118;28;20052;-72
2022/03/29 01:22:49;;;;;;;17.65;11.20;;;11.80;64.60;;;;;;5054439;28;20116;-71
2022/03/29 01:25:19;;;;;;;17.05;11.02;;;11.70;64.10;;;;;;5054066;28;20033;-72
2022/03/29 01:27:47;;;;;;;21.42;12.30;;;11.80;64.50;;;;;;5053987;28;20063;-73
2022/03/29 01:30:14;;;;;;;23.23;11.40;;;11.80;63.60;;;;;;5053856;28;20550;-70
2022/03/29 01:32:43;;;;;;;18.20;12.55;;;11.80;65.50;;;;;;5053747;28;20836;-70
2022/03/29 01:35:10;;;;;;;18.83;12.77;;;11.80;65.80;;;;;;5053937;28;20041;-72
2022/03/29 01:37:36;;;;;;;21.70;12.55;;;11.60;66.00;;;;;;5053773;28;20044;-69
2022/03/29 01:40:10;;;;;;;24.13;12.85;;;11.30;67.20;;;;;;5053819;28;20063;-72
2022/03/29 01:42:36;;;;;;;24.98;13.25;;;11.20;67.60;;;;;;5053761;28;20049;-72
2022/03/29 01:45:03;;;;;;;22.75;12.63;;;11.20;66.70;;;;;;5053831;28;20033;-72
2022/03/29 01:47:29;;;;;;;22.33;12.70;;;11.20;67.40;;;;;;5035877;28;20045;-72
2022/03/29 01:49:55;;;;;;;19.20;12.13;;;11.30;66.60;;;;;;5053370;28;20040;-71
2022/03/29 01:52:21;;;;;;;23.25;13.10;;;11.20;67.00;;;;;;5053443;28;20492;-72
2022/03/29 01:54:47;;;;;;;21.58;13.70;;;11.10;66.70;;;;;;5053768;28;20041;-72
2022/03/29 01:57:13;;;;;;;19.75;12.68;;;11.20;67.00;;;;;;5053757;28;20045;-72
2022/03/29 02:02:23;;;;;;;22.35;12.60;;;11.30;65.90;;;;;;5054033;28;20040;-72
2022/03/29 02:04:49;;;;;;;22.65;12.88;;;11.30;66.20;;;;;;5053595;28;20040;-72
2022/03/29 02:07:16;;;;;;;22.20;13.50;;;11.30;66.60;;;;;;5053579;28;20053;-69
2022/03/29 02:09:43;;;;;;;22.40;12.50;;;11.00;66.90;;;;;;5035090;28;20152;-72
2022/03/29 02:12:12;;;;;;;21.63;12.60;;;11.20;66.10;;;;;;5033003;28;20087;-72
2022/03/29 02:14:39;;;;;;;22.75;13.02;;;11.30;66.00;;;;;;5033379;28;20540;-72
2022/03/29 02:17:06;;;;;;;25.88;12.77;;;11.10;67.00;;;;;;5033588;28;20135;-72
2022/03/29 02:19:31;;;;;;;20.05;12.93;;;11.00;68.70;;;;;;5033308;28;20025;-72
2022/03/29 02:21:58;;;;;;;20.13;12.38;;;10.90;67.00;;;;;;5033385;28;20045;-72
2022/03/29 02:24:23;;;;;;;26.77;13.27;;;11.10;68.20;;;;;;5033278;28;20539;-71
2022/03/29 02:26:49;;;;;;;19.20;12.30;;;11.10;67.10;;;;;;5032819;28;20069;-70
2022/03/29 02:29:15;;;;;;;20.92;12.90;;;11.00;67.40;;;;;;5033153;28;20509;-68
2022/03/29 02:31:41;;;;;;;19.17;12.45;;;10.70;67.10;;;;;;5033126;28;20424;-72
2022/03/29 02:34:07;;;;;;;25.02;13.60;;;10.60;68.00;;;;;;5032908;28;20048;-72
2022/03/29 02:36:32;;;;;;;23.38;14.00;;;10.60;67.20;;;;;;5014268;28;20061;-73
2022/03/29 02:38:59;;;;;;;23.02;12.43;;;10.70;66.90;;;;;;5033100;28;20060;-73
2022/03/29 02:41:24;;;;;;;24.15;12.63;;;10.60;67.00;;;;;;5031791;28;20383;-73
2022/03/29 02:43:50;;;;;;;23.83;13.02;;;10.60;67.40;;;;;;5032961;28;20090;-71
2022/03/29 02:46:16;;;;;;;17.80;12.43;;;10.60;67.50;;;;;;5032852;28;20056;-72
2022/03/29 02:48:41;;;;;;;24.45;12.35;;;10.50;68.20;;;;;;5032602;28;20531;-72
2022/03/29 02:51:07;;;;;;;19.63;12.85;;;10.40;69.00;;;;;;5039767;28;20042;-73
2022/03/29 02:53:33;;;;;;;23.67;11.75;;;10.50;67.00;;;;;;5035188;28;20579;-72
2022/03/29 02:55:59;;;;;;;22.33;12.50;;;10.50;66.30;;;;;;5032703;28;20527;-72
2022/03/29 02:58:25;;;;;;;21.95;12.65;;;10.70;65.80;;;;;;5032757;28;20526;-70
2022/03/29 03:00:51;;;;;;;27.38;12.23;;;10.90;64.90;;;;;;5032991;28;20045;-72
2022/03/29 03:03:17;;;;;;;20.70;12.13;;;11.00;65.40;;;;;;5032929;28;20049;-72
2022/03/29 03:05:43;;;;;;;17.73;11.35;;;10.80;65.50;;;;;;5032763;28;20036;-70
2022/03/29 03:08:09;;;;;;;22.42;11.25;;;10.90;65.80;;;;;;5032735;28;20440;-72
2022/03/29 03:10:35;;;;;;;20.10;11.20;;;11.10;63.90;;;;;;5029387;28;20041;-71
2022/03/29 03:13:01;;;;;;;16.92;11.63;;;11.00;64.80;;;;;;5030808;28;20049;-72
2022/03/29 03:15:27;;;;;;;19.52;10.68;;;10.90;66.10;;;;;;5032600;28;20045;-70
2022/03/29 03:17:55;;;;;;;19.73;10.80;;;10.90;64.70;;;;;;5032617;28;20041;-72
2022/03/29 03:20:22;;;;;;;17.63;11.05;;;11.00;64.70;;;;;;5032675;28;20045;-72
2022/03/29 03:22:50;;;;;;;18.10;10.93;;;11.00;65.50;;;;;;5032647;28;20093;-72
2022/03/29 03:25:16;;;;;;;21.30;11.98;;;11.20;64.60;;;;;;5032806;28;20128;-72
2022/03/29 03:27:42;;;;;;;22.95;11.57;;;11.20;65.60;;;;;;5032602;28;20049;-71
2022/03/29 03:30:11;;;;;;;21.73;11.02;;;11.10;65.10;;;;;;5032567;28;20037;-72
2022/03/29 03:32:38;;;;;;;18.30;11.07;;;11.10;66.30;;;;;;5032571;28;20565;-72
2022/03/29 03:35:04;;;;;;;18.55;10.88;;;11.10;65.00;;;;;;5032637;28;20050;-71
2022/03/29 03:37:30;;;;;;;20.02;11.00;;;11.10;65.70;;;;;;5032425;28;20026;-69
2022/03/29 03:39:56;;;;;;;21.42;11.63;;;11.20;65.60;;;;;;5035052;28;20045;-72
2022/03/29 03:42:22;;;;;;;16.85;10.43;;;11.10;65.70;;;;;;5036240;28;20116;-72
2022/03/29 03:44:47;;;;;;;20.05;11.15;;;11.10;65.60;;;;;;5036225;28;20207;-68
2022/03/29 03:47:13;;;;;;;19.45;11.25;;;11.10;66.30;;;;;;5036014;28;20030;-72
2022/03/29 03:49:39;;;;;;;18.65;10.85;;;11.20;65.10;;;;;;5036251;28;20413;-71
2022/03/29 03:52:07;;;;;;;20.52;11.88;;;11.20;65.10;;;;;;5035925;28;20382;-72
2022/03/29 03:54:34;;;;;;;19.90;11.48;;;11.10;64.30;;;;;;5035949;28;20041;-72
2022/03/29 03:56:59;;;;;;;19.10;11.60;;;11.20;63.80;;;;;;5035719;28;20040;-72
2022/03/29 03:59:25;;;;;;;19.55;11.38;;;11.20;65.30;;;;;;5035698;28;20045;-71
2022/03/29 04:01:51;;;;;;;20.50;10.90;;;11.10;64.20;;;;;;5035556;28;20041;-72
2022/03/29 04:04:16;;;;;;;20.10;11.38;;;11.10;65.80;;;;;;5035845;28;20045;-72
2022/03/29 04:06:42;;;;;;;18.00;11.68;;;11.00;64.20;;;;;;5035666;28;20030;-73
2022/03/29 04:09:08;;;;;;;17.17;11.43;;;11.00;64.70;;;;;;5035713;28;20057;-72
2022/03/29 04:11:34;;;;;;;22.70;12.02;;;11.00;64.20;;;;;;5035657;28;20046;-72
2022/03/29 04:13:59;;;;;;;19.35;11.38;;;11.00;64.60;;;;;;5035598;28;20053;-70
2022/03/29 04:16:26;;;;;;;22.15;11.15;;;11.00;64.40;;;;;;5035552;28;20519;-73
2022/03/29 04:18:52;;;;;;;22.58;12.02;;;11.00;65.20;;;;;;5035560;28;20041;-73
2022/03/29 04:21:18;;;;;;;20.30;11.57;;;10.90;65.10;;;;;;5035360;28;20716;-72
2022/03/29 04:23:44;;;;;;;24.02;11.43;;;10.90;64.40;;;;;;5035390;28;20037;-71
2022/03/29 04:26:10;;;;;;;18.02;11.35;;;11.00;65.10;;;;;;5035360;28;20045;-72
2022/03/29 04:28:36;;;;;;;21.83;11.32;;;11.10;64.80;;;;;;5035174;28;20057;-73
2022/03/29 04:31:02;;;;;;;21.60;12.57;;;11.20;64.10;;;;;;5035051;28;20527;-72
2022/03/29 04:33:28;;;;;;;19.85;12.20;;;11.10;63.60;;;;;;5035154;28;20037;-75
2022/03/29 04:35:55;;;;;;;21.08;11.48;;;11.20;63.60;;;;;;5035228;28;20040;-73
2022/03/29 04:38:21;;;;;;;20.02;10.82;;;11.10;64.50;;;;;;5035222;28;20037;-73
2022/03/29 04:40:47;;;;;;;16.75;10.75;;;11.00;64.50;;;;;;5035144;28;20041;-73
2022/03/29 04:43:13;;;;;;;20.20;11.38;;;11.00;64.30;;;;;;5035094;28;20038;-73
2022/03/29 04:45:39;;;;;;;22.33;11.43;;;10.90;64.60;;;;;;5035105;28;20045;-73
2022/03/29 04:48:05;;;;;;;22.75;11.57;;;10.90;64.60;;;;;;5034926;28;20416;-74
2022/03/29 04:50:31;;;;;;;23.05;11.55;;;11.10;65.70;;;;;;5034054;28;20045;-74
2022/03/29 04:52:57;;;;;;;17.52;11.38;;;11.10;64.40;;;;;;5034694;28;20046;-74
2022/03/29 04:55:22;;;;;;;22.13;11.27;;;11.00;65.00;;;;;;5034881;28;20044;-74
2022/03/29 04:57:50;;;;;;;21.63;11.48;;;10.90;64.80;;;;;;5034919;28;20076;-74
2022/03/29 05:00:20;;;;;;;20.00;11.43;;;10.90;64.40;;;;;;5034914;28;20520;-74
2022/03/29 05:02:46;;;;;;;17.42;11.82;;;10.80;64.90;;;;;;5034771;28;20036;-74
2022/03/29 05:05:13;;;;;;;20.55;11.75;;;10.80;65.40;;;;;;5034612;28;20052;-73
2022/03/29 05:07:40;;;;;;;24.75;11.75;;;10.80;65.90;;;;;;5033820;28;20067;-74
2022/03/29 05:10:08;;;;;;;26.13;12.13;;;10.70;65.60;;;;;;5033275;28;20053;-75
2022/03/29 05:12:49;;;;;;;25.75;12.23;;;10.80;64.00;;;;;;5033483;28;20044;-76
2022/03/29 05:15:18;;;;;;;25.00;11.85;;;10.80;63.70;;;;;;5034864;28;20052;-77
2022/03/29 05:17:45;;;;;;;19.90;11.90;;;10.90;63.70;;;;;;5034513;28;20046;-77
2022/03/29 05:20:12;;;;;;;22.52;12.32;;;10.90;64.30;;;;;;5034756;28;20041;-77
2022/03/29 05:22:45;;;;;;;18.88;11.75;;;10.80;64.70;;;;;;5034526;28;20033;-78
2022/03/29 05:25:13;;;;;;;32.38;12.10;;;10.80;65.90;;;;;;5034570;28;20448;-77
2022/03/29 05:27:39;;;;;;;18.98;12.02;;;10.80;65.80;;;;;;5034331;28;20037;-77
2022/03/29 05:30:06;;;;;;;23.23;11.70;;;10.70;66.00;;;;;;5034140;28;20046;-78
2022/03/29 05:32:32;;;;;;;22.20;11.55;;;10.60;65.40;;;;;;5033221;28;20030;-77
2022/03/29 05:34:58;;;;;;;28.60;11.35;;;10.60;65.50;;;;;;5033713;28;20041;-77
2022/03/29 05:37:24;;;;;;;28.52;12.43;;;10.60;66.60;;;;;;5034497;28;20137;-79
2022/03/29 05:39:50;;;;;;;22.92;12.38;;;10.50;66.80;;;;;;5032502;28;20084;-68
2022/03/29 05:42:16;;;;;;;21.58;11.68;;;10.50;66.60;;;;;;5032268;28;20065;-70
2022/03/29 05:44:43;;;;;;;22.15;12.35;;;10.60;65.10;;;;;;5032315;28;20045;-77
2022/03/29 05:49:53;;;;;;;23.02;12.38;;;10.60;65.20;;;;;;5037974;28;20527;-78
2022/03/29 05:52:21;;;;;;;25.02;12.30;;;10.60;64.80;;;;;;5033938;28;20029;-73
2022/03/29 05:54:47;;;;;;;22.90;12.05;;;10.60;64.60;;;;;;5033505;28;20041;-79
2022/03/29 05:57:14;;;;;;;25.55;12.25;;;10.60;65.00;;;;;;5033297;28;20032;-79
2022/03/29 05:59:40;;;;;;;26.10;12.30;;;10.60;64.90;;;;;;5015961;28;20077;-77
2022/03/29 06:02:08;;;;;;;22.17;11.65;;;10.70;64.90;;;;;;5033053;28;20386;-72
2022/03/29 06:04:37;;;;;;;25.40;12.82;;;10.70;64.30;;;;;;5033488;28;20060;-74
2022/03/29 06:07:04;;;;;;;23.38;12.20;;;10.80;63.70;;;;;;5033447;28;20131;-76
2022/03/29 06:09:31;;;;;;;26.40;11.50;;;11.00;63.60;;;;;;5033055;28;20045;-76
2022/03/29 06:11:57;;;;;;;23.15;10.93;;;11.20;63.40;;;;;;5033518;28;20113;-76
2022/03/29 06:14:23;;;;;;;26.45;11.77;;;11.30;63.10;;;;;;5033479;28;20069;-71
2022/03/29 06:16:49;;;;;;;25.17;12.05;;;11.30;63.50;;;;;;5033383;28;20041;-71
2022/03/29 06:19:15;;;;;;;23.85;11.55;;;11.30;63.80;;;;;;5032921;28;20039;-72
2022/03/29 06:21:41;;;;;;;29.83;12.18;;;11.30;64.90;;;;;;5031700;28;20037;-70
2022/03/29 06:24:08;;;;;;;22.42;11.38;;;11.20;66.20;;;;;;5032587;28;20120;-75
2022/03/29 06:26:39;;;;;;;27.02;11.18;;;11.20;66.00;;;;;;5031897;28;20037;-75
2022/03/29 06:29:08;;;;;;;23.23;10.25;;;11.20;65.50;;;;;;5032218;28;20509;-76
2022/03/29 06:31:34;;;;;;;28.90;12.48;;;11.20;65.60;;;;;;5033111;28;20041;-75
2022/03/29 06:34:00;;;;;;;23.10;11.02;;;11.20;65.50;;;;;;5033206;28;20091;-73
2022/03/29 06:36:26;;;;;;;27.75;11.60;;;11.30;65.10;;;;;;5033245;28;20501;-69
2022/03/29 06:38:53;;;;;;;23.25;11.00;;;11.30;64.20;;;;;;5033099;28;20037;-75
2022/03/29 06:41:19;;;;;;;21.75;11.02;;;11.40;65.30;;;;;;5033125;28;20045;-72
2022/03/29 06:43:45;;;;;;;28.85;12.68;;;11.40;65.90;;;;;;5033074;28;20033;-75
2022/03/29 06:46:11;;;;;;;23.73;10.57;;;11.40;65.60;;;;;;5032529;28;20042;-75
2022/03/29 06:48:39;;;;;;;24.27;11.73;;;11.40;66.10;;;;;;5032755;28;20630;-75
2022/03/29 06:51:06;;;;;;;20.50;10.90;;;11.50;66.00;;;;;;5032973;28;20069;-75
2022/03/29 06:53:32;;;;;;;24.10;10.65;;;11.50;65.90;;;;;;5032839;28;20119;-75
2022/03/29 06:55:58;;;;;;;17.88;10.98;;;11.60;65.40;;;;;;5032944;28;20065;-77
2022/03/29 06:58:24;;;;;;;23.92;11.13;;;11.70;65.80;;;;;;5033014;28;20041;-76
2022/03/29 07:00:50;;;;;;;22.00;10.43;;;11.80;66.30;;;;;;5032769;28;20045;-72
2022/03/29 07:03:15;;;;;;;26.02;10.57;;;11.90;65.70;;;;;;5033042;28;20124;-75
2022/03/29 07:05:42;;;;;;;18.15;9.60;;;12.10;64.10;;;;;;5032733;28;20408;-76
2022/03/29 07:08:12;;;;;;;17.17;10.27;;;12.30;65.20;;;;;;5032822;28;20159;-76
2022/03/29 07:13:23;;;;;;;25.65;10.73;;;12.60;65.10;;;;;;5032331;28;20068;-75
2022/03/29 07:15:50;;;;;;;25.67;10.35;;;12.50;64.00;;;;;;5033437;28;20037;-75
2022/03/29 07:18:16;;;;;;;24.10;9.48;;;12.50;64.20;;;;;;5034651;28;20052;-74
2022/03/29 07:20:42;;;;;;;24.90;10.45;;;12.50;63.10;;;;;;5036634;28;20057;-75
2022/03/29 07:23:08;;;;;;;21.42;9.70;;;12.50;64.70;;;;;;5036738;28;20072;-74
2022/03/29 07:25:34;;;;;;;24.27;11.10;;;12.70;65.10;;;;;;5036976;28;20040;-75
2022/03/29 07:28:01;;;;;;;37.67;10.77;;;12.80;64.80;;;;;;5036469;28;20076;-71
2022/03/29 07:30:27;;;;;;;30.63;10.85;;;13.00;65.60;;;;;;5036731;28;20068;-71
2022/03/29 07:32:57;;;;;;;31.60;11.40;;;13.20;65.30;;;;;;5036552;28;20037;-74
2022/03/29 07:35:25;;;;;;;32.33;10.75;;;13.30;65.40;;;;;;5039124;28;20579;-74
2022/03/29 07:37:51;;;;;;;27.75;12.77;;;13.40;64.60;;;;;;5036416;28;20099;-75
2022/03/29 07:40:20;;;;;;;27.67;11.70;;;13.40;64.90;;;;;;5036423;28;20044;-75
2022/03/29 07:42:46;;;;;;;26.83;14.30;;;13.50;64.70;;;;;;5053056;28;20079;-74
2022/03/29 07:45:12;;;;;;;34.45;13.65;;;13.60;65.10;;;;;;5056323;28;20068;-75
2022/03/29 07:47:41;;;;;;;25.52;12.52;;;13.70;66.20;;;;;;5056108;28;20098;-75
2022/03/29 07:50:08;;;;;;;25.60;13.43;;;13.70;65.90;;;;;;5056059;28;20033;-67
2022/03/29 07:52:40;;;;;;;28.75;16.83;;;13.80;68.70;;;;;;5056339;28;20373;-75
2022/03/29 07:55:08;;;;;;;36.72;17.23;;;13.70;70.30;;;;;;5056110;28;20044;-70
2022/03/29 07:57:35;;;;;;;31.13;16.73;;;13.90;69.80;;;;;;5056084;28;20048;-74
2022/03/29 08:00:31;;;;;;;25.15;14.27;;;14.00;71.00;;;;;;5055882;28;20611;-74
2022/03/29 08:02:50;;;;;;;29.77;15.52;;;14.20;70.40;;;;;;5055688;28;20045;-76
2022/03/29 08:05:16;;;;;;;30.33;11.82;;;14.30;69.80;;;;;;5055593;28;20094;-71
2022/03/29 08:07:42;;;;;;;24.55;10.48;;;14.20;69.30;;;;;;5055508;28;20041;-74
2022/03/29 08:10:08;;;;;;;25.67;12.73;;;14.20;69.20;;;;;;5055781;28;20055;-70
2022/03/29 08:12:35;;;;;;;26.08;13.13;;;14.20;71.90;;;;;;5055713;28;20040;-76
2022/03/29 08:15:01;;;;;;;25.52;13.48;;;14.30;70.70;;;;;;5055686;28;20512;-76
2022/03/29 08:17:27;;;;;;;28.77;11.25;;;14.30;72.10;;;;;;5055739;28;20064;-74
2022/03/29 08:19:53;;;;;;;23.23;10.20;;;14.20;69.20;;;;;;5055595;28;20041;-73
2022/03/29 08:22:19;;;;;;;21.13;10.02;;;14.20;67.00;;;;;;5055603;28;20033;-75
2022/03/29 08:24:45;;;;;;;18.48;10.27;;;14.10;66.90;;;;;;5054741;28;20040;-76
2022/03/29 08:27:11;;;;;;;20.75;12.10;;;14.40;67.30;;;;;;5055131;28;20451;-75
2022/03/29 08:29:38;;;;;;;17.75;10.02;;;14.50;71.70;;;;;;5055541;28;20052;-74
2022/03/29 08:32:04;;;;;;;25.10;10.43;;;14.60;68.70;;;;;;5055494;28;20033;-74
2022/03/29 08:34:31;;;;;;;22.05;11.02;;;14.70;70.80;;;;;;5055156;28;20508;-72
2022/03/29 08:36:57;;;;;;;26.55;11.82;;;14.70;69.00;;;;;;5055235;28;20033;-78
2022/03/29 08:39:23;;;;;;;25.13;10.43;;;14.80;66.80;;;;;;5055153;28;20090;-75
2022/03/29 08:42:10;;;;;;;23.80;10.80;;;15.00;65.00;;;;;;5055048;28;20041;-71
2022/03/29 08:44:38;;;;;;;25.15;10.63;;;15.20;68.40;;;;;;5054976;28;20047;-75
2022/03/29 08:47:08;;;;;;;20.77;11.43;;;15.20;65.70;;;;;;5054974;28;20037;-75
2022/03/29 08:49:35;;;;;;;24.08;9.93;;;15.30;66.90;;;;;;5054802;28;20053;-68
2022/03/29 08:52:02;;;;;;;21.50;9.93;;;15.10;64.40;;;;;;5054732;28;20024;-73
2022/03/29 08:54:28;;;;;;;28.17;11.27;;;15.10;65.10;;;;;;5054794;28;20838;-74
2022/03/29 08:56:54;;;;;;;26.38;11.38;;;15.10;65.30;;;;;;5054871;28;20159;-71
2022/03/29 08:59:20;;;;;;;19.70;10.50;;;15.20;65.00;;;;;;5054831;28;20131;-70
2022/03/29 09:01:47;;;;;;;25.42;10.68;;;15.40;65.10;;;;;;5054735;28;20063;-74
2022/03/29 09:04:15;;;;;;;25.05;11.05;;;15.40;68.30;;;;;;5054704;28;20040;-75
2022/03/29 09:06:50;;;;;;;22.52;10.63;;;15.70;68.90;;;;;;5054625;28;20384;-72
2022/03/29 09:09:32;;;;;;;20.55;10.70;;;15.90;65.60;;;;;;5054680;28;20049;-74
2022/03/29 09:12:08;;;;;;;24.13;10.82;;;15.70;65.40;;;;;;5054606;28;20063;-71
2022/03/29 09:14:59;;;;;;;29.77;10.20;;;15.70;64.30;;;;;;5054549;28;20059;-74
2022/03/29 09:17:38;;;;;;;28.13;10.30;;;15.80;64.10;;;;;;5054419;28;20041;-75
2022/03/29 09:20:10;;;;;;;17.48;9.50;;;15.70;66.00;;;;;;5054177;28;20045;-75
2022/03/29 09:22:40;;;;;;;22.92;9.77;;;15.70;65.70;;;;;;5036241;28;20075;-74
2022/03/29 09:25:07;;;;;;;20.58;9.60;;;15.50;62.50;;;;;;5053990;28;20095;-75
2022/03/29 09:27:57;;;;;;;23.17;9.52;;;15.50;65.70;;;;;;5053956;28;20051;-74
2022/03/29 09:30:24;;;;;;;29.40;10.35;;;15.60;65.20;;;;;;5041880;28;20059;-75
2022/03/29 09:33:04;;;;;;;21.60;10.32;;;15.50;66.00;;;;;;5034313;28;20033;-75
2022/03/29 09:35:37;;;;;;;21.35;10.13;;;15.80;68.00;;;;;;5033884;28;20045;-71
2022/03/29 09:38:25;;;;;;;17.58;9.45;;;16.10;65.70;;;;;;5033242;28;20049;-75
2022/03/29 09:40:51;;;;;;;20.25;9.43;;;16.50;66.00;;;;;;5034337;28;20059;-75
2022/03/29 09:43:25;;;;;;;24.02;9.43;;;16.50;64.20;;;;;;5033984;28;20489;-75
2022/03/29 09:45:53;;;;;;;24.42;9.98;;;16.40;64.10;;;;;;5036531;28;20044;-75
2022/03/29 09:48:31;;;;;;;27.33;11.13;;;16.20;64.70;;;;;;5033648;28;20406;-77
2022/03/29 09:51:09;;;;;;;24.00;10.73;;;16.40;67.40;;;;;;5033949;28;20048;-76
2022/03/29 09:53:44;;;;;;;29.45;9.88;;;16.50;65.60;;;;;;5033799;28;20048;-71
2022/03/29 09:56:12;;;;;;;31.33;10.73;;;16.60;66.10;;;;;;5033761;28;20045;-73
2022/03/29 09:58:39;;;;;;;23.30;9.10;;;16.50;65.00;;;;;;5033657;28;20033;-77
2022/03/29 10:01:06;;;;;;;25.25;10.07;;;16.50;66.90;;;;;;5033633;28;20037;-79
2022/03/29 10:03:36;;;;;;;21.63;8.32;;;16.80;66.20;;;;;;5033712;28;20120;-75
2022/03/29 10:06:05;;;;;;;26.73;10.00;;;17.10;65.80;;;;;;5033792;28;20041;-75
2022/03/29 10:11:22;;;;;;;25.20;9.38;;;16.90;65.40;;;;;;5033534;28;20036;-76
2022/03/29 10:13:49;;;;;;;21.25;9.30;;;16.80;65.60;;;;;;5033521;28;20464;-76
2022/03/29 10:16:16;;;;;;;29.23;9.45;;;16.70;66.60;;;;;;5033377;28;20489;-76
2022/03/29 10:18:44;;;;;;;24.67;9.27;;;16.80;66.50;;;;;;5033465;28;20107;-75
2022/03/29 10:21:12;;;;;;;26.60;10.27;;;17.00;67.40;;;;;;5033374;28;20531;-74
2022/03/29 10:23:39;;;;;;;23.33;9.52;;;17.00;65.70;;;;;;5033129;28;20037;-75
2022/03/29 10:26:08;;;;;;;22.20;9.95;;;17.20;68.10;;;;;;5033474;28;20116;-75
2022/03/29 10:28:34;;;;;;;28.35;9.85;;;17.20;65.30;;;;;;5033301;28;20045;-75
2022/03/29 10:31:00;;;;;;;26.33;9.90;;;17.30;65.90;;;;;;5032992;28;20163;-72
2022/03/29 10:33:31;;;;;;;25.38;8.68;;;17.40;67.80;;;;;;5033028;28;20047;-75
2022/03/29 10:36:08;;;;;;;21.00;8.15;;;17.70;66.40;;;;;;5031317;28;20502;-70
2022/03/29 10:38:43;;;;;;;25.95;8.63;;;17.50;65.70;;;;;;5031690;28;20045;-75
2022/03/29 10:41:27;;;;;;;21.33;9.10;;;18.20;67.80;;;;;;5031987;28;20029;-71
2022/03/29 10:44:04;;;;;;;19.15;6.72;;;18.90;67.60;;;;;;5032972;28;20110;-70
2022/03/29 10:46:46;;;;;;;24.83;7.50;;;18.80;65.70;;;;;;5032827;28;20033;-68
2022/03/29 10:49:28;;;;;;;21.30;7.07;;;18.60;64.80;;;;;;5032413;28;20053;-74
2022/03/29 10:51:55;;;;;;;32.58;8.07;;;18.90;65.60;;;;;;5032937;28;20045;-75
2022/03/29 10:54:38;;;;;;;26.17;7.70;;;18.70;64.80;;;;;;5033045;28;20464;-75
2022/03/29 10:57:06;;;;;;;25.17;7.85;;;18.70;66.80;;;;;;5032996;28;20052;-74
2022/03/29 10:59:38;;;;;;;20.75;7.32;;;18.70;63.30;;;;;;5032952;28;20075;-69
2022/03/29 11:02:15;;;;;;;27.70;7.22;;;18.90;64.90;;;;;;5032678;28;20068;-75
2022/03/29 11:05:00;;;;;;;23.90;8.30;;;19.10;65.20;;;;;;5032685;28;20063;-74
2022/03/29 11:07:25;;;;;;;32.90;7.95;;;19.00;64.10;;;;;;5032581;28;20555;-69
2022/03/29 11:10:13;;;;;;;22.83;6.63;;;19.00;63.50;;;;;;5032693;28;20049;-74
2022/03/29 11:12:51;;;;;;;24.60;7.55;;;18.90;63.20;;;;;;5032918;28;20421;-73
2022/03/29 11:15:35;;;;;;;22.73;6.88;;;19.00;63.70;;;;;;5032669;28;20064;-74
2022/03/29 11:18:04;;;;;;;32.25;6.43;;;19.40;62.60;;;;;;5030233;28;20076;-74
2022/03/29 11:20:38;;;;;;;36.03;7.63;;;19.00;62.60;;;;;;5030859;28;20048;-75
2022/03/29 11:23:09;;;;;;;25.83;6.75;;;18.60;60.10;;;;;;5032765;28;20045;-75
2022/03/29 11:25:50;;;;;;;32.47;7.32;;;18.50;62.50;;;;;;5032798;28;20045;-74
2022/03/29 11:28:17;;;;;;;30.83;6.95;;;18.70;62.40;;;;;;5032578;28;20089;-75
2022/03/29 11:30:44;;;;;;;26.77;6.88;;;18.80;62.40;;;;;;5032582;28;20068;-75
2022/03/29 11:33:11;;;;;;;31.83;7.35;;;18.80;62.20;;;;;;5032420;28;20370;-73
2022/03/29 11:35:39;;;;;;;38.75;8.13;;;18.40;60.90;;;;;;5032337;28;20050;-75
2022/03/29 11:38:16;;;;;;;30.48;7.63;;;18.20;61.90;;;;;;5032249;28;20532;-71
2022/03/29 11:40:43;;;;;;;27.35;7.15;;;18.60;61.50;;;;;;5032506;28;20567;-74
2022/03/29 11:43:12;;;;;;;29.35;7.65;;;18.80;61.90;;;;;;5032493;28;20041;-72
2022/03/29 11:45:42;;;;;;;31.55;7.60;;;18.90;61.70;;;;;;5032296;28;20032;-75
2022/03/29 11:48:12;;;;;;;;;;;18.90;61.10;;;;;;5032669;28;20072;-75
2022/03/29 11:50:43;;;;;;;33.08;7.30;;;19.20;62.00;;;;;;5032429;28;19916;-74
2022/03/29 11:53:30;;;;;;;34.78;8.02;;;19.30;64.30;;;;;;5032491;28;20036;-71
2022/03/29 11:56:15;;;;;;;37.25;6.55;;;19.60;61.90;;;;;;5032300;28;20042;-72
2022/03/29 11:58:52;;;;;;;34.08;7.15;;;20.00;61.10;;;;;;5032264;28;20037;-74
2022/03/29 12:01:29;;;;;;;40.78;8.60;;;20.10;58.70;;;;;;5035523;28;20034;-75
2022/03/29 12:03:57;;;;;;;43.47;7.55;;;20.00;59.90;;;;;;5035873;28;20535;-75
2022/03/29 12:06:25;;;;;;;34.25;6.78;;;20.00;58.10;;;;;;5035839;28;20043;-70
2022/03/29 12:08:56;;;;;;;37.55;5.95;;;20.10;58.80;;;;;;5035763;28;20049;-75
2022/03/29 12:11:31;;;;;;;42.85;7.18;;;20.30;59.90;;;;;;5035870;28;20060;-70
2022/03/29 12:14:11;;;;;;;46.55;6.90;;;20.40;62.20;;;;;;5035640;28;20033;-76
2022/03/29 12:16:38;;;;;;;;;;;20.10;58.40;;;;;;5036063;28;20038;-69
2022/03/29 12:19:09;;;;;;;25.73;6.43;;;19.80;58.10;;;;;;5035650;28;19909;-75
2022/03/29 12:21:35;;;;;;;42.60;7.00;;;19.60;59.70;;;;;;5018016;28;20493;-76
2022/03/29 12:24:04;;;;;;;37.30;7.15;;;19.50;58.80;;;;;;5017925;28;20045;-75
2022/03/29 12:26:31;;;;;;;37.85;6.43;;;19.40;59.80;;;;;;5035599;28;20543;-72
2022/03/29 12:28:59;;;;;;;27.23;6.18;;;19.60;59.50;;;;;;5035473;28;20502;-75
2022/03/29 12:31:27;;;;;;;31.95;7.47;;;19.50;60.50;;;;;;5035341;28;20082;-76
2022/03/29 12:33:54;;;;;;;28.27;6.25;;;19.30;58.60;;;;;;5035286;28;20057;-76
2022/03/29 12:36:20;;;;;;;26.00;6.82;;;19.30;60.20;;;;;;5035127;28;20125;-75
2022/03/29 12:38:48;;;;;;;32.95;6.43;;;19.40;60.20;;;;;;5035151;28;20049;-76
2022/03/29 12:41:31;;;;;;;33.30;7.20;;;19.50;59.30;;;;;;5034959;28;20033;-76
2022/03/29 12:43:57;;;;;;;38.08;6.85;;;19.30;58.40;;;;;;5034998;28;20060;-76
2022/03/29 12:46:23;;;;;;;34.00;6.53;;;19.40;61.40;;;;;;5039754;28;20033;-75
2022/03/29 12:48:49;;;;;;;33.45;5.78;;;19.50;60.90;;;;;;5050071;28;20075;-75